Terminal Aerodrome Forecast
Issued by NWS Cleveland, OH

Home | Current Version | Previous Version | Graphics & Text | Print | Product List | Glossary On
Versions: 1 2 3 4 5 6 7 8 9 10 11 12 13 14 15 16 17 18
000
FTUS41 KCLE 192300
TAFMFD
TAF
KMFD 192323Z 2000/2024 VRB03KT P6SM OVC015
      TEMPO 2006/2009 3SM BR OVC009
     FM200900 VRB03KT 3SM BR BKN009 OVC012
     FM201400 VRB03KT 5SM BR SCT009 OVC012
     FM201800 VRB03KT P6SM SCT012 OVC020=

USA.gov is the U.S. government's official web portal to all federal, state and local government web resources and services.